Terminal Aerodrome Forecast
Issued by NWS

Home | Current Version | Previous Version | Graphics & Text | Print | Product List | Glossary On
Versions: 1 2 3 4 5 6 7 8 9 10 11 12 13 14 15 16 17 18 19 20 21 22 23 24 25 26 27 28 29 30 31 32 33 34 35 36 37 38 39 40 41 42 43 44 45 46
000
FTUS43 KLOT 091349 AAA
TAFGYY
TAF AMD
KGYY 091349Z 0914/1012 32011KT 4SM -SHSN BKN015 OVC025
      TEMPO 0914/0916 2SM -SN OVC015
     FM091600 32016G26KT P6SM -SHSN BKN015 OVC020
     FM091800 33023G34KT P6SM BKN015 OVC025
     FM100200 31015G22KT P6SM BKN200
     FM100900 26010KT P6SM BKN100=

USA.gov is the U.S. government's official web portal to all federal, state and local government web resources and services.